sensor_id;sensor_type;location;lat;lon;timestamp;P1;durP1;ratioP1;P2;durP2;ratioP2
1402;SDS011;696;48.546;9.896;2023-04-24T00:01:11;0.90;;;0.90;;
1402;SDS011;696;48.546;9.896;2023-04-24T00:03:38;1.05;;;0.95;;
1402;SDS011;696;48.546;9.896;2023-04-24T00:06:03;2.95;;;1.10;;
1402;SDS011;696;48.546;9.896;2023-04-24T00:08:30;2.35;;;1.00;;
1402;SDS011;696;48.546;9.896;2023-04-24T00:10:55;0.98;;;0.98;;
1402;SDS011;696;48.546;9.896;2023-04-24T00:13:21;0.95;;;0.88;;
1402;SDS011;696;48.546;9.896;2023-04-24T00:15:46;0.75;;;0.75;;
1402;SDS011;696;48.546;9.896;2023-04-24T00:18:12;1.52;;;1.00;;
1402;SDS011;696;48.546;9.896;2023-04-24T00:20:37;1.58;;;1.05;;
1402;SDS011;696;48.546;9.896;2023-04-24T00:23:02;1.27;;;0.95;;
1402;SDS011;696;48.546;9.896;2023-04-24T00:25:28;1.42;;;1.02;;
1402;SDS011;696;48.546;9.896;2023-04-24T00:27:53;1.27;;;1.17;;
1402;SDS011;696;48.546;9.896;2023-04-24T00:30:19;2.10;;;1.27;;
1402;SDS011;696;48.546;9.896;2023-04-24T00:32:44;3.38;;;1.17;;
1402;SDS011;696;48.546;9.896;2023-04-24T00:35:09;2.47;;;1.10;;
1402;SDS011;696;48.546;9.896;2023-04-24T00:37:35;0.80;;;0.80;;
1402;SDS011;696;48.546;9.896;2023-04-24T00:40:00;1.95;;;1.00;;
1402;SDS011;696;48.546;9.896;2023-04-24T00:42:26;1.15;;;0.93;;
1402;SDS011;696;48.546;9.896;2023-04-24T00:44:51;0.95;;;0.85;;
1402;SDS011;696;48.546;9.896;2023-04-24T00:47:17;1.52;;;0.82;;
1402;SDS011;696;48.546;9.896;2023-04-24T00:49:43;3.58;;;1.20;;
1402;SDS011;696;48.546;9.896;2023-04-24T00:52:09;0.60;;;0.60;;
1402;SDS011;696;48.546;9.896;2023-04-24T00:54:35;1.52;;;0.90;;
1402;SDS011;696;48.546;9.896;2023-04-24T00:57:02;3.08;;;0.90;;
1402;SDS011;696;48.546;9.896;2023-04-24T00:59:28;1.35;;;0.88;;
1402;SDS011;696;48.546;9.896;2023-04-24T01:01:53;1.30;;;1.00;;
1402;SDS011;696;48.546;9.896;2023-04-24T01:04:19;1.08;;;0.98;;
1402;SDS011;696;48.546;9.896;2023-04-24T01:06:45;1.40;;;1.00;;
1402;SDS011;696;48.546;9.896;2023-04-24T01:09:10;1.30;;;0.90;;
1402;SDS011;696;48.546;9.896;2023-04-24T01:11:36;0.73;;;0.73;;
1402;SDS011;696;48.546;9.896;2023-04-24T01:14:02;1.15;;;0.95;;
1402;SDS011;696;48.546;9.896;2023-04-24T01:16:27;1.10;;;0.80;;
1402;SDS011;696;48.546;9.896;2023-04-24T01:18:53;1.33;;;0.93;;
1402;SDS011;696;48.546;9.896;2023-04-24T01:21:18;3.38;;;1.00;;
1402;SDS011;696;48.546;9.896;2023-04-24T01:23:45;1.10;;;1.00;;
1402;SDS011;696;48.546;9.896;2023-04-24T01:26:11;1.45;;;1.05;;
1402;SDS011;696;48.546;9.896;2023-04-24T01:28:37;1.00;;;0.90;;
1402;SDS011;696;48.546;9.896;2023-04-24T01:31:02;1.80;;;1.45;;
1402;SDS011;696;48.546;9.896;2023-04-24T01:33:28;1.08;;;0.98;;
1402;SDS011;696;48.546;9.896;2023-04-24T01:35:53;1.02;;;0.82;;
1402;SDS011;696;48.546;9.896;2023-04-24T01:38:19;1.85;;;1.23;;
1402;SDS011;696;48.546;9.896;2023-04-24T01:40:44;1.30;;;1.00;;
1402;SDS011;696;48.546;9.896;2023-04-24T01:43:10;0.80;;;0.80;;
1402;SDS011;696;48.546;9.896;2023-04-24T01:45:36;1.20;;;1.10;;
1402;SDS011;696;48.546;9.896;2023-04-24T01:48:01;3.90;;;1.05;;
1402;SDS011;696;48.546;9.896;2023-04-24T01:50:27;0.75;;;0.75;;
1402;SDS011;696;48.546;9.896;2023-04-24T01:52:52;0.80;;;0.80;;
1402;SDS011;696;48.546;9.896;2023-04-24T01:55:18;0.93;;;0.85;;
1402;SDS011;696;48.546;9.896;2023-04-24T01:57:43;1.30;;;1.20;;
1402;SDS011;696;48.546;9.896;2023-04-24T02:00:08;1.00;;;0.90;;
1402;SDS011;696;48.546;9.896;2023-04-24T02:02:36;1.33;;;0.98;;
1402;SDS011;696;48.546;9.896;2023-04-24T02:05:02;2.05;;;0.98;;
1402;SDS011;696;48.546;9.896;2023-04-24T02:07:27;1.27;;;1.00;;
1402;SDS011;696;48.546;9.896;2023-04-24T02:09:53;9.18;;;1.00;;
1402;SDS011;696;48.546;9.896;2023-04-24T02:12:18;1.73;;;1.02;;
1402;SDS011;696;48.546;9.896;2023-04-24T02:14:44;0.98;;;0.85;;
1402;SDS011;696;48.546;9.896;2023-04-24T02:17:09;8.90;;;1.00;;
1402;SDS011;696;48.546;9.896;2023-04-24T02:19:38;2.50;;;1.20;;
1402;SDS011;696;48.546;9.896;2023-04-24T02:22:04;0.90;;;0.80;;
1402;SDS011;696;48.546;9.896;2023-04-24T02:24:29;1.08;;;0.90;;
1402;SDS011;696;48.546;9.896;2023-04-24T02:26:54;0.80;;;0.80;;
1402;SDS011;696;48.546;9.896;2023-04-24T02:29:20;1.20;;;0.80;;
1402;SDS011;696;48.546;9.896;2023-04-24T02:31:46;2.97;;;0.75;;
1402;SDS011;696;48.546;9.896;2023-04-24T02:34:11;1.35;;;0.90;;
1402;SDS011;696;48.546;9.896;2023-04-24T02:36:36;0.80;;;0.73;;
1402;SDS011;696;48.546;9.896;2023-04-24T02:39:02;1.25;;;1.00;;
1402;SDS011;696;48.546;9.896;2023-04-24T02:41:28;5.93;;;1.15;;
1402;SDS011;696;48.546;9.896;2023-04-24T02:43:57;1.65;;;0.90;;
1402;SDS011;696;48.546;9.896;2023-04-24T02:46:22;0.98;;;0.90;;
1402;SDS011;696;48.546;9.896;2023-04-24T02:48:48;1.92;;;0.90;;
1402;SDS011;696;48.546;9.896;2023-04-24T02:51:13;1.35;;;1.05;;
1402;SDS011;696;48.546;9.896;2023-04-24T02:53:38;1.52;;;0.90;;
1402;SDS011;696;48.546;9.896;2023-04-24T02:56:04;2.10;;;1.30;;
1402;SDS011;696;48.546;9.896;2023-04-24T02:58:29;0.77;;;0.77;;
1402;SDS011;696;48.546;9.896;2023-04-24T03:00:55;2.08;;;0.98;;
1402;SDS011;696;48.546;9.896;2023-04-24T03:03:21;1.73;;;0.90;;
1402;SDS011;696;48.546;9.896;2023-04-24T03:05:46;1.67;;;0.95;;
1402;SDS011;696;48.546;9.896;2023-04-24T03:08:12;0.93;;;0.90;;
1402;SDS011;696;48.546;9.896;2023-04-24T03:10:37;1.30;;;0.95;;
1402;SDS011;696;48.546;9.896;2023-04-24T03:13:03;1.13;;;0.90;;
1402;SDS011;696;48.546;9.896;2023-04-24T03:15:28;5.10;;;1.20;;
1402;SDS011;696;48.546;9.896;2023-04-24T03:17:54;1.25;;;0.93;;
1402;SDS011;696;48.546;9.896;2023-04-24T03:20:20;1.30;;;1.00;;
1402;SDS011;696;48.546;9.896;2023-04-24T03:22:45;0.75;;;0.75;;
1402;SDS011;696;48.546;9.896;2023-04-24T03:25:10;1.20;;;1.10;;
1402;SDS011;696;48.546;9.896;2023-04-24T03:27:36;1.17;;;1.08;;
1402;SDS011;696;48.546;9.896;2023-04-24T03:30:02;0.80;;;0.77;;
1402;SDS011;696;48.546;9.896;2023-04-24T03:32:28;0.93;;;0.73;;
1402;SDS011;696;48.546;9.896;2023-04-24T03:34:53;7.45;;;2.60;;
1402;SDS011;696;48.546;9.896;2023-04-24T03:37:18;3.97;;;2.53;;
1402;SDS011;696;48.546;9.896;2023-04-24T03:39:44;3.03;;;2.03;;
1402;SDS011;696;48.546;9.896;2023-04-24T03:42:09;6.30;;;1.90;;
1402;SDS011;696;48.546;9.896;2023-04-24T03:44:35;4.53;;;1.30;;
1402;SDS011;696;48.546;9.896;2023-04-24T03:47:01;1.67;;;1.10;;
1402;SDS011;696;48.546;9.896;2023-04-24T03:49:26;1.55;;;1.05;;
1402;SDS011;696;48.546;9.896;2023-04-24T03:51:51;1.80;;;0.90;;
1402;SDS011;696;48.546;9.896;2023-04-24T03:54:17;2.00;;;0.90;;
1402;SDS011;696;48.546;9.896;2023-04-24T03:56:43;5.63;;;1.08;;
1402;SDS011;696;48.546;9.896;2023-04-24T03:59:09;1.35;;;0.85;;
1402;SDS011;696;48.546;9.896;2023-04-24T04:01:34;1.83;;;0.70;;
1402;SDS011;696;48.546;9.896;2023-04-24T04:04:02;3.50;;;1.08;;
1402;SDS011;696;48.546;9.896;2023-04-24T04:06:28;1.10;;;0.93;;
1402;SDS011;696;48.546;9.896;2023-04-24T04:08:53;0.77;;;0.77;;
1402;SDS011;696;48.546;9.896;2023-04-24T04:11:19;1.33;;;0.77;;
1402;SDS011;696;48.546;9.896;2023-04-24T04:13:44;0.88;;;0.88;;
1402;SDS011;696;48.546;9.896;2023-04-24T04:16:12;1.27;;;0.75;;
1402;SDS011;696;48.546;9.896;2023-04-24T04:18:38;1.60;;;0.88;;
1402;SDS011;696;48.546;9.896;2023-04-24T04:21:03;1.15;;;0.95;;
1402;SDS011;696;48.546;9.896;2023-04-24T04:23:28;2.10;;;1.25;;
1402;SDS011;696;48.546;9.896;2023-04-24T04:25:54;1.75;;;0.80;;
1402;SDS011;696;48.546;9.896;2023-04-24T04:28:20;1.13;;;0.98;;
1402;SDS011;696;48.546;9.896;2023-04-24T04:30:46;1.05;;;0.93;;
1402;SDS011;696;48.546;9.896;2023-04-24T04:33:12;2.47;;;1.20;;
1402;SDS011;696;48.546;9.896;2023-04-24T04:35:37;2.40;;;0.90;;
1402;SDS011;696;48.546;9.896;2023-04-24T04:38:02;3.13;;;1.02;;
1402;SDS011;696;48.546;9.896;2023-04-24T04:40:27;1.05;;;0.95;;
1402;SDS011;696;48.546;9.896;2023-04-24T04:42:53;1.08;;;0.80;;
1402;SDS011;696;48.546;9.896;2023-04-24T04:45:18;1.42;;;1.00;;
1402;SDS011;696;48.546;9.896;2023-04-24T04:47:45;1.75;;;0.82;;
1402;SDS011;696;48.546;9.896;2023-04-24T04:50:11;1.35;;;0.85;;
1402;SDS011;696;48.546;9.896;2023-04-24T04:52:36;1.10;;;1.00;;
1402;SDS011;696;48.546;9.896;2023-04-24T04:55:01;1.65;;;0.98;;
1402;SDS011;696;48.546;9.896;2023-04-24T04:57:27;1.00;;;0.90;;
1402;SDS011;696;48.546;9.896;2023-04-24T04:59:52;0.80;;;0.80;;
1402;SDS011;696;48.546;9.896;2023-04-24T05:02:18;2.35;;;0.88;;
1402;SDS011;696;48.546;9.896;2023-04-24T05:04:43;1.13;;;1.02;;
1402;SDS011;696;48.546;9.896;2023-04-24T05:07:08;2.08;;;1.00;;
1402;SDS011;696;48.546;9.896;2023-04-24T05:09:34;2.85;;;0.98;;
1402;SDS011;696;48.546;9.896;2023-04-24T05:11:59;1.75;;;1.10;;
1402;SDS011;696;48.546;9.896;2023-04-24T05:14:25;1.83;;;1.02;;
1402;SDS011;696;48.546;9.896;2023-04-24T05:16:50;3.60;;;1.23;;
1402;SDS011;696;48.546;9.896;2023-04-24T05:19:16;1.77;;;1.35;;
1402;SDS011;696;48.546;9.896;2023-04-24T05:21:41;1.88;;;1.10;;
1402;SDS011;696;48.546;9.896;2023-04-24T05:24:06;1.95;;;1.35;;
1402;SDS011;696;48.546;9.896;2023-04-24T05:26:32;1.30;;;0.90;;
1402;SDS011;696;48.546;9.896;2023-04-24T05:28:57;1.35;;;1.02;;
1402;SDS011;696;48.546;9.896;2023-04-24T05:31:23;5.07;;;1.20;;
1402;SDS011;696;48.546;9.896;2023-04-24T05:33:48;1.15;;;0.93;;
1402;SDS011;696;48.546;9.896;2023-04-24T05:36:13;1.00;;;0.90;;
1402;SDS011;696;48.546;9.896;2023-04-24T05:38:39;1.40;;;0.98;;
1402;SDS011;696;48.546;9.896;2023-04-24T05:41:04;2.72;;;1.48;;
1402;SDS011;696;48.546;9.896;2023-04-24T05:43:30;2.42;;;0.80;;
1402;SDS011;696;48.546;9.896;2023-04-24T05:45:55;2.38;;;1.23;;
1402;SDS011;696;48.546;9.896;2023-04-24T05:48:20;2.92;;;1.13;;
1402;SDS011;696;48.546;9.896;2023-04-24T05:50:47;1.30;;;1.05;;
1402;SDS011;696;48.546;9.896;2023-04-24T05:53:13;1.33;;;1.00;;
1402;SDS011;696;48.546;9.896;2023-04-24T05:55:38;1.52;;;1.20;;
1402;SDS011;696;48.546;9.896;2023-04-24T05:58:03;1.50;;;1.02;;
1402;SDS011;696;48.546;9.896;2023-04-24T06:00:29;1.67;;;1.05;;
1402;SDS011;696;48.546;9.896;2023-04-24T06:02:55;1.13;;;1.02;;
1402;SDS011;696;48.546;9.896;2023-04-24T06:05:20;3.35;;;1.63;;
1402;SDS011;696;48.546;9.896;2023-04-24T06:07:45;1.50;;;1.20;;
1402;SDS011;696;48.546;9.896;2023-04-24T06:10:11;3.55;;;1.70;;
1402;SDS011;696;48.546;9.896;2023-04-24T06:12:36;1.88;;;1.48;;
1402;SDS011;696;48.546;9.896;2023-04-24T06:15:02;2.10;;;1.13;;
1402;SDS011;696;48.546;9.896;2023-04-24T06:17:28;1.08;;;0.95;;
1402;SDS011;696;48.546;9.896;2023-04-24T06:19:53;1.70;;;1.33;;
1402;SDS011;696;48.546;9.896;2023-04-24T06:22:19;0.95;;;0.85;;
1402;SDS011;696;48.546;9.896;2023-04-24T06:24:44;2.17;;;0.90;;
1402;SDS011;696;48.546;9.896;2023-04-24T06:27:09;2.78;;;1.80;;
1402;SDS011;696;48.546;9.896;2023-04-24T06:29:35;2.00;;;1.67;;
1402;SDS011;696;48.546;9.896;2023-04-24T06:32:01;1.33;;;1.00;;
1402;SDS011;696;48.546;9.896;2023-04-24T06:34:26;1.60;;;1.20;;
1402;SDS011;696;48.546;9.896;2023-04-24T06:36:52;1.98;;;1.42;;
1402;SDS011;696;48.546;9.896;2023-04-24T06:39:17;3.78;;;2.17;;
1402;SDS011;696;48.546;9.896;2023-04-24T06:41:42;3.13;;;2.17;;
1402;SDS011;696;48.546;9.896;2023-04-24T06:44:08;4.68;;;2.10;;
1402;SDS011;696;48.546;9.896;2023-04-24T06:46:33;3.90;;;1.92;;
1402;SDS011;696;48.546;9.896;2023-04-24T06:48:59;2.95;;;1.98;;
1402;SDS011;696;48.546;9.896;2023-04-24T06:51:25;8.50;;;2.22;;
1402;SDS011;696;48.546;9.896;2023-04-24T06:53:51;5.00;;;2.08;;
1402;SDS011;696;48.546;9.896;2023-04-24T06:56:17;5.47;;;3.08;;
1402;SDS011;696;48.546;9.896;2023-04-24T06:58:43;4.82;;;2.55;;
1402;SDS011;696;48.546;9.896;2023-04-24T07:01:09;2.97;;;1.70;;
1402;SDS011;696;48.546;9.896;2023-04-24T07:03:35;2.00;;;1.33;;
1402;SDS011;696;48.546;9.896;2023-04-24T07:06:00;2.92;;;1.23;;
1402;SDS011;696;48.546;9.896;2023-04-24T07:08:25;1.20;;;1.10;;
1402;SDS011;696;48.546;9.896;2023-04-24T07:10:51;1.88;;;1.15;;
1402;SDS011;696;48.546;9.896;2023-04-24T07:13:16;1.75;;;1.20;;
1402;SDS011;696;48.546;9.896;2023-04-24T07:15:42;2.80;;;1.30;;
1402;SDS011;696;48.546;9.896;2023-04-24T07:18:08;1.95;;;1.38;;
1402;SDS011;696;48.546;9.896;2023-04-24T07:20:34;4.68;;;1.33;;
1402;SDS011;696;48.546;9.896;2023-04-24T07:22:59;3.08;;;1.60;;
1402;SDS011;696;48.546;9.896;2023-04-24T07:25:25;1.98;;;1.52;;
1402;SDS011;696;48.546;9.896;2023-04-24T07:27:50;11.98;;;1.50;;
1402;SDS011;696;48.546;9.896;2023-04-24T07:30:15;3.40;;;1.58;;
1402;SDS011;696;48.546;9.896;2023-04-24T07:32:41;2.08;;;1.40;;
1402;SDS011;696;48.546;9.896;2023-04-24T07:35:06;1.70;;;1.25;;
1402;SDS011;696;48.546;9.896;2023-04-24T07:37:32;1.80;;;1.45;;
1402;SDS011;696;48.546;9.896;2023-04-24T07:39:57;2.40;;;1.35;;
1402;SDS011;696;48.546;9.896;2023-04-24T07:42:22;2.67;;;1.40;;
1402;SDS011;696;48.546;9.896;2023-04-24T07:44:48;8.98;;;1.45;;
1402;SDS011;696;48.546;9.896;2023-04-24T07:47:14;1.65;;;1.40;;
1402;SDS011;696;48.546;9.896;2023-04-24T07:49:41;3.30;;;1.67;;
1402;SDS011;696;48.546;9.896;2023-04-24T07:52:06;2.60;;;1.45;;
1402;SDS011;696;48.546;9.896;2023-04-24T07:54:32;2.72;;;1.58;;
1402;SDS011;696;48.546;9.896;2023-04-24T07:56:57;2.53;;;1.20;;
1402;SDS011;696;48.546;9.896;2023-04-24T07:59:22;2.50;;;1.55;;
1402;SDS011;696;48.546;9.896;2023-04-24T08:01:48;2.50;;;1.48;;
1402;SDS011;696;48.546;9.896;2023-04-24T08:04:14;2.33;;;1.50;;
1402;SDS011;696;48.546;9.896;2023-04-24T08:06:39;1.40;;;1.30;;
1402;SDS011;696;48.546;9.896;2023-04-24T08:09:05;1.25;;;1.13;;
1402;SDS011;696;48.546;9.896;2023-04-24T08:11:31;1.33;;;1.23;;
1402;SDS011;696;48.546;9.896;2023-04-24T08:13:57;2.38;;;1.30;;
1402;SDS011;696;48.546;9.896;2023-04-24T08:16:23;1.77;;;1.20;;
1402;SDS011;696;48.546;9.896;2023-04-24T08:18:51;1.50;;;0.82;;
1402;SDS011;696;48.546;9.896;2023-04-24T08:21:17;1.13;;;1.00;;
1402;SDS011;696;48.546;9.896;2023-04-24T08:23:44;2.40;;;1.25;;
1402;SDS011;696;48.546;9.896;2023-04-24T08:26:10;1.45;;;1.20;;
1402;SDS011;696;48.546;9.896;2023-04-24T08:28:36;1.50;;;1.33;;
1402;SDS011;696;48.546;9.896;2023-04-24T08:31:01;1.63;;;1.40;;
1402;SDS011;696;48.546;9.896;2023-04-24T08:33:27;7.65;;;1.45;;
1402;SDS011;696;48.546;9.896;2023-04-24T08:35:57;2.47;;;1.02;;
1402;SDS011;696;48.546;9.896;2023-04-24T08:38:23;1.30;;;0.95;;
1402;SDS011;696;48.546;9.896;2023-04-24T08:40:48;1.02;;;0.93;;
1402;SDS011;696;48.546;9.896;2023-04-24T08:43:14;1.95;;;0.90;;
1402;SDS011;696;48.546;9.896;2023-04-24T08:45:40;1.15;;;0.80;;
1402;SDS011;696;48.546;9.896;2023-04-24T08:48:06;1.50;;;1.10;;
1402;SDS011;696;48.546;9.896;2023-04-24T08:50:32;1.10;;;1.00;;
1402;SDS011;696;48.546;9.896;2023-04-24T08:52:58;1.77;;;1.10;;
1402;SDS011;696;48.546;9.896;2023-04-24T08:55:25;1.67;;;1.15;;
1402;SDS011;696;48.546;9.896;2023-04-24T08:57:52;1.95;;;1.00;;
1402;SDS011;696;48.546;9.896;2023-04-24T09:00:18;0.85;;;0.85;;
1402;SDS011;696;48.546;9.896;2023-04-24T09:02:45;1.17;;;0.98;;
1402;SDS011;696;48.546;9.896;2023-04-24T09:05:10;1.20;;;1.10;;
1402;SDS011;696;48.546;9.896;2023-04-24T09:07:36;1.70;;;1.35;;
1402;SDS011;696;48.546;9.896;2023-04-24T09:10:04;2.75;;;1.10;;
1402;SDS011;696;48.546;9.896;2023-04-24T09:12:32;2.97;;;1.10;;
1402;SDS011;696;48.546;9.896;2023-04-24T09:14:58;1.83;;;0.95;;
1402;SDS011;696;48.546;9.896;2023-04-24T09:17:24;0.73;;;0.73;;
1402;SDS011;696;48.546;9.896;2023-04-24T09:19:52;2.22;;;1.00;;
1402;SDS011;696;48.546;9.896;2023-04-24T09:22:17;1.67;;;1.00;;
1402;SDS011;696;48.546;9.896;2023-04-24T09:24:42;1.17;;;1.08;;
1402;SDS011;696;48.546;9.896;2023-04-24T09:27:08;1.75;;;1.10;;
1402;SDS011;696;48.546;9.896;2023-04-24T09:29:36;1.02;;;0.93;;
1402;SDS011;696;48.546;9.896;2023-04-24T09:32:17;3.33;;;1.02;;
1402;SDS011;696;48.546;9.896;2023-04-24T09:34:43;0.70;;;0.70;;
1402;SDS011;696;48.546;9.896;2023-04-24T09:37:08;2.42;;;1.23;;
1402;SDS011;696;48.546;9.896;2023-04-24T09:39:34;1.50;;;1.13;;
1402;SDS011;696;48.546;9.896;2023-04-24T09:41:59;2.97;;;1.15;;
1402;SDS011;696;48.546;9.896;2023-04-24T09:44:27;2.03;;;1.38;;
1402;SDS011;696;48.546;9.896;2023-04-24T09:49:28;1.58;;;1.08;;
1402;SDS011;696;48.546;9.896;2023-04-24T09:52:08;1.20;;;1.10;;
1402;SDS011;696;48.546;9.896;2023-04-24T09:54:35;1.63;;;1.00;;
1402;SDS011;696;48.546;9.896;2023-04-24T09:57:01;2.00;;;1.02;;
1402;SDS011;696;48.546;9.896;2023-04-24T09:59:27;1.95;;;1.05;;
1402;SDS011;696;48.546;9.896;2023-04-24T10:01:52;2.45;;;0.88;;
1402;SDS011;696;48.546;9.896;2023-04-24T10:04:19;1.83;;;1.27;;
1402;SDS011;696;48.546;9.896;2023-04-24T10:06:46;1.73;;;0.95;;
1402;SDS011;696;48.546;9.896;2023-04-24T10:09:13;1.63;;;1.13;;
1402;SDS011;696;48.546;9.896;2023-04-24T10:11:43;5.55;;;1.40;;
1402;SDS011;696;48.546;9.896;2023-04-24T10:14:17;1.05;;;0.95;;
1402;SDS011;696;48.546;9.896;2023-04-24T10:19:09;1.35;;;1.08;;
1402;SDS011;696;48.546;9.896;2023-04-24T10:21:35;1.90;;;1.10;;
1402;SDS011;696;48.546;9.896;2023-04-24T10:24:07;2.53;;;1.00;;
1402;SDS011;696;48.546;9.896;2023-04-24T10:26:32;1.75;;;1.15;;
1402;SDS011;696;48.546;9.896;2023-04-24T10:28:58;1.52;;;1.35;;
1402;SDS011;696;48.546;9.896;2023-04-24T10:31:24;1.38;;;1.02;;
1402;SDS011;696;48.546;9.896;2023-04-24T10:33:49;0.60;;;0.60;;
1402;SDS011;696;48.546;9.896;2023-04-24T10:36:15;0.75;;;0.75;;
1402;SDS011;696;48.546;9.896;2023-04-24T10:38:41;3.58;;;1.17;;
1402;SDS011;696;48.546;9.896;2023-04-24T10:41:08;1.17;;;1.00;;
1402;SDS011;696;48.546;9.896;2023-04-24T10:43:40;1.17;;;0.93;;
1402;SDS011;696;48.546;9.896;2023-04-24T10:46:06;1.23;;;1.13;;
1402;SDS011;696;48.546;9.896;2023-04-24T10:48:32;1.38;;;0.88;;
1402;SDS011;696;48.546;9.896;2023-04-24T10:50:58;1.20;;;0.80;;
1402;SDS011;696;48.546;9.896;2023-04-24T10:53:24;1.80;;;0.70;;
1402;SDS011;696;48.546;9.896;2023-04-24T10:59:04;1.27;;;0.98;;
1402;SDS011;696;48.546;9.896;2023-04-24T11:01:28;1.08;;;0.88;;
1402;SDS011;696;48.546;9.896;2023-04-24T11:04:02;2.03;;;0.90;;
1402;SDS011;696;48.546;9.896;2023-04-24T11:06:31;3.70;;;1.05;;
1402;SDS011;696;48.546;9.896;2023-04-24T11:09:01;1.35;;;1.10;;
1402;SDS011;696;48.546;9.896;2023-04-24T11:11:29;0.75;;;0.75;;
1402;SDS011;696;48.546;9.896;2023-04-24T11:16:21;1.15;;;0.95;;
1402;SDS011;696;48.546;9.896;2023-04-24T11:21:39;1.23;;;1.05;;
1402;SDS011;696;48.546;9.896;2023-04-24T11:24:25;1.52;;;0.90;;
1402;SDS011;696;48.546;9.896;2023-04-24T11:26:51;5.88;;;1.10;;
1402;SDS011;696;48.546;9.896;2023-04-24T11:29:19;3.22;;;1.00;;
1402;SDS011;696;48.546;9.896;2023-04-24T11:31:45;1.10;;;0.73;;
1402;SDS011;696;48.546;9.896;2023-04-24T11:34:14;0.93;;;0.80;;
1402;SDS011;696;48.546;9.896;2023-04-24T11:36:47;1.80;;;1.00;;
1402;SDS011;696;48.546;9.896;2023-04-24T11:39:13;2.33;;;1.00;;
1402;SDS011;696;48.546;9.896;2023-04-24T11:41:39;1.92;;;1.10;;
1402;SDS011;696;48.546;9.896;2023-04-24T11:44:06;0.82;;;0.77;;
1402;SDS011;696;48.546;9.896;2023-04-24T11:46:32;0.98;;;0.80;;
1402;SDS011;696;48.546;9.896;2023-04-24T11:48:58;1.52;;;1.10;;
1402;SDS011;696;48.546;9.896;2023-04-24T11:51:25;1.50;;;0.88;;
1402;SDS011;696;48.546;9.896;2023-04-24T11:53:51;1.63;;;1.02;;
1402;SDS011;696;48.546;9.896;2023-04-24T11:56:18;1.10;;;0.90;;
1402;SDS011;696;48.546;9.896;2023-04-24T11:58:44;2.10;;;1.10;;
1402;SDS011;696;48.546;9.896;2023-04-24T12:01:10;1.40;;;0.90;;
1402;SDS011;696;48.546;9.896;2023-04-24T12:03:36;7.70;;;1.20;;
1402;SDS011;696;48.546;9.896;2023-04-24T12:06:05;1.13;;;0.85;;
1402;SDS011;696;48.546;9.896;2023-04-24T12:08:32;1.48;;;1.00;;
1402;SDS011;696;48.546;9.896;2023-04-24T12:10:59;1.65;;;0.70;;
1402;SDS011;696;48.546;9.896;2023-04-24T12:13:25;0.85;;;0.70;;
1402;SDS011;696;48.546;9.896;2023-04-24T12:15:51;1.50;;;0.60;;
1402;SDS011;696;48.546;9.896;2023-04-24T12:18:16;1.17;;;0.70;;
1402;SDS011;696;48.546;9.896;2023-04-24T12:20:42;0.80;;;0.70;;
1402;SDS011;696;48.546;9.896;2023-04-24T12:23:07;2.67;;;0.70;;
1402;SDS011;696;48.546;9.896;2023-04-24T12:25:32;0.68;;;0.60;;
1402;SDS011;696;48.546;9.896;2023-04-24T12:30:31;5.25;;;1.00;;
1402;SDS011;696;48.546;9.896;2023-04-24T12:32:58;0.80;;;0.80;;
1402;SDS011;696;48.546;9.896;2023-04-24T12:35:25;0.88;;;0.60;;
1402;SDS011;696;48.546;9.896;2023-04-24T12:37:52;1.38;;;0.80;;
1402;SDS011;696;48.546;9.896;2023-04-24T12:40:18;3.00;;;0.60;;
1402;SDS011;696;48.546;9.896;2023-04-24T12:42:45;0.50;;;0.50;;
1402;SDS011;696;48.546;9.896;2023-04-24T12:45:12;0.60;;;0.60;;
1402;SDS011;696;48.546;9.896;2023-04-24T12:47:39;2.28;;;0.63;;
1402;SDS011;696;48.546;9.896;2023-04-24T12:50:05;0.63;;;0.63;;
1402;SDS011;696;48.546;9.896;2023-04-24T12:52:35;2.67;;;0.65;;
1402;SDS011;696;48.546;9.896;2023-04-24T12:55:01;1.23;;;0.68;;
1402;SDS011;696;48.546;9.896;2023-04-24T12:57:27;0.60;;;0.60;;
1402;SDS011;696;48.546;9.896;2023-04-24T12:59:54;0.63;;;0.52;;
1402;SDS011;696;48.546;9.896;2023-04-24T13:02:20;1.52;;;0.80;;
1402;SDS011;696;48.546;9.896;2023-04-24T13:04:47;0.80;;;0.80;;
1402;SDS011;696;48.546;9.896;2023-04-24T13:07:13;1.38;;;0.60;;
1402;SDS011;696;48.546;9.896;2023-04-24T13:09:39;0.90;;;0.85;;
1402;SDS011;696;48.546;9.896;2023-04-24T13:12:04;0.95;;;0.60;;
1402;SDS011;696;48.546;9.896;2023-04-24T13:14:30;0.60;;;0.60;;
1402;SDS011;696;48.546;9.896;2023-04-24T13:16:56;1.45;;;0.80;;
1402;SDS011;696;48.546;9.896;2023-04-24T13:19:23;1.17;;;0.75;;
1402;SDS011;696;48.546;9.896;2023-04-24T13:21:50;1.35;;;0.90;;
1402;SDS011;696;48.546;9.896;2023-04-24T13:24:15;1.30;;;0.90;;
1402;SDS011;696;48.546;9.896;2023-04-24T13:26:41;1.02;;;0.90;;
1402;SDS011;696;48.546;9.896;2023-04-24T13:29:06;1.35;;;0.70;;
1402;SDS011;696;48.546;9.896;2023-04-24T13:31:31;0.70;;;0.60;;
1402;SDS011;696;48.546;9.896;2023-04-24T13:33:57;0.98;;;0.70;;
1402;SDS011;696;48.546;9.896;2023-04-24T13:36:22;0.82;;;0.82;;
1402;SDS011;696;48.546;9.896;2023-04-24T13:38:47;0.60;;;0.60;;
1402;SDS011;696;48.546;9.896;2023-04-24T13:41:13;2.17;;;1.00;;
1402;SDS011;696;48.546;9.896;2023-04-24T13:43:38;0.60;;;0.60;;
1402;SDS011;696;48.546;9.896;2023-04-24T13:46:03;3.65;;;0.95;;
1402;SDS011;696;48.546;9.896;2023-04-24T13:48:29;4.22;;;0.90;;
1402;SDS011;696;48.546;9.896;2023-04-24T13:50:55;6.38;;;1.05;;
1402;SDS011;696;48.546;9.896;2023-04-24T13:53:20;1.98;;;0.77;;
1402;SDS011;696;48.546;9.896;2023-04-24T13:55:46;1.38;;;0.85;;
1402;SDS011;696;48.546;9.896;2023-04-24T13:58:11;5.32;;;1.40;;
1402;SDS011;696;48.546;9.896;2023-04-24T14:00:37;0.63;;;0.63;;
1402;SDS011;696;48.546;9.896;2023-04-24T14:03:02;1.35;;;0.73;;
1402;SDS011;696;48.546;9.896;2023-04-24T14:05:27;1.83;;;0.82;;
1402;SDS011;696;48.546;9.896;2023-04-24T14:07:53;0.75;;;0.75;;
1402;SDS011;696;48.546;9.896;2023-04-24T14:10:18;5.05;;;0.93;;
1402;SDS011;696;48.546;9.896;2023-04-24T14:12:43;5.65;;;1.52;;
1402;SDS011;696;48.546;9.896;2023-04-24T14:15:09;3.90;;;1.35;;
1402;SDS011;696;48.546;9.896;2023-04-24T14:17:36;2.70;;;1.02;;
1402;SDS011;696;48.546;9.896;2023-04-24T14:20:02;5.20;;;1.85;;
1402;SDS011;696;48.546;9.896;2023-04-24T14:22:28;1.83;;;0.80;;
1402;SDS011;696;48.546;9.896;2023-04-24T14:24:54;1.33;;;0.90;;
1402;SDS011;696;48.546;9.896;2023-04-24T14:27:19;1.38;;;0.93;;
1402;SDS011;696;48.546;9.896;2023-04-24T14:29:45;2.28;;;0.82;;
1402;SDS011;696;48.546;9.896;2023-04-24T14:32:10;1.05;;;0.95;;
1402;SDS011;696;48.546;9.896;2023-04-24T14:34:36;1.25;;;1.00;;
1402;SDS011;696;48.546;9.896;2023-04-24T14:37:01;0.75;;;0.75;;
1402;SDS011;696;48.546;9.896;2023-04-24T14:39:27;1.35;;;0.90;;
1402;SDS011;696;48.546;9.896;2023-04-24T14:41:53;0.98;;;0.88;;
1402;SDS011;696;48.546;9.896;2023-04-24T14:44:18;8.10;;;1.15;;
1402;SDS011;696;48.546;9.896;2023-04-24T14:46:45;0.77;;;0.77;;
1402;SDS011;696;48.546;9.896;2023-04-24T14:49:10;1.60;;;0.93;;
1402;SDS011;696;48.546;9.896;2023-04-24T14:51:37;1.30;;;1.00;;
1402;SDS011;696;48.546;9.896;2023-04-24T14:54:02;4.03;;;1.10;;
1402;SDS011;696;48.546;9.896;2023-04-24T14:56:28;2.15;;;1.33;;
1402;SDS011;696;48.546;9.896;2023-04-24T14:58:53;1.25;;;1.00;;
1402;SDS011;696;48.546;9.896;2023-04-24T15:01:20;0.90;;;0.85;;
1402;SDS011;696;48.546;9.896;2023-04-24T15:03:46;1.50;;;1.00;;
1402;SDS011;696;48.546;9.896;2023-04-24T15:06:11;1.73;;;1.02;;
1402;SDS011;696;48.546;9.896;2023-04-24T15:08:36;1.00;;;0.88;;
1402;SDS011;696;48.546;9.896;2023-04-24T15:11:02;1.75;;;1.15;;
1402;SDS011;696;48.546;9.896;2023-04-24T15:13:27;1.05;;;0.95;;
1402;SDS011;696;48.546;9.896;2023-04-24T15:15:52;6.40;;;1.17;;
1402;SDS011;696;48.546;9.896;2023-04-24T15:18:18;2.17;;;1.13;;
1402;SDS011;696;48.546;9.896;2023-04-24T15:20:43;1.27;;;0.98;;
1402;SDS011;696;48.546;9.896;2023-04-24T15:23:09;2.20;;;1.23;;
1402;SDS011;696;48.546;9.896;2023-04-24T15:25:34;1.38;;;0.90;;
1402;SDS011;696;48.546;9.896;2023-04-24T15:28:00;1.83;;;1.02;;
1402;SDS011;696;48.546;9.896;2023-04-24T15:30:25;2.28;;;1.20;;
1402;SDS011;696;48.546;9.896;2023-04-24T15:32:51;1.65;;;1.17;;
1402;SDS011;696;48.546;9.896;2023-04-24T15:35:17;1.58;;;1.38;;
1402;SDS011;696;48.546;9.896;2023-04-24T15:37:42;3.35;;;1.95;;